sensor_id;sensor_type;location;lat;lon;timestamp;pressure;altitude;pressure_sealevel;temperature;humidity
74524;BME280;63074;44.696;10.358;2023-07-09T00:01:14;100355.75;;;27.19;88.51
74524;BME280;63074;44.696;10.358;2023-07-09T00:03:46;100329.84;;;27.89;87.05
74524;BME280;63074;44.696;10.358;2023-07-09T00:06:17;100351.03;;;27.19;89.26
74524;BME280;63074;44.696;10.358;2023-07-09T00:08:45;100349.94;;;27.00;90.35
74524;BME280;63074;44.696;10.358;2023-07-09T00:11:14;100348.81;;;27.46;88.03
74524;BME280;63074;44.696;10.358;2023-07-09T00:13:41;100342.72;;;27.98;86.75
74524;BME280;63074;44.696;10.358;2023-07-09T00:16:18;100374.84;;;27.57;87.08
74524;BME280;63074;44.696;10.358;2023-07-09T00:18:45;100360.59;;;27.55;88.00
74524;BME280;63074;44.696;10.358;2023-07-09T00:21:18;100327.97;;;28.06;86.81
74524;BME280;63074;44.696;10.358;2023-07-09T00:23:45;100368.94;;;27.79;86.29
74524;BME280;63074;44.696;10.358;2023-07-09T00:26:13;100353.91;;;28.90;81.59
74524;BME280;63074;44.696;10.358;2023-07-09T00:28:40;100376.78;;;28.14;84.42
74524;BME280;63074;44.696;10.358;2023-07-09T00:31:14;100381.34;;;27.73;86.01
74524;BME280;63074;44.696;10.358;2023-07-09T00:33:41;100372.25;;;27.61;86.54
74524;BME280;63074;44.696;10.358;2023-07-09T00:36:16;100361.59;;;27.50;87.17
74524;BME280;63074;44.696;10.358;2023-07-09T00:38:44;100361.38;;;27.10;89.04
74524;BME280;63074;44.696;10.358;2023-07-09T00:41:18;100336.41;;;27.40;89.58
74524;BME280;63074;44.696;10.358;2023-07-09T00:43:47;100338.81;;;27.86;86.45
74524;BME280;63074;44.696;10.358;2023-07-09T00:48:43;100373.94;;;28.35;83.36
74524;BME280;63074;44.696;10.358;2023-07-09T00:51:14;100397.81;;;27.82;84.68
74524;BME280;63074;44.696;10.358;2023-07-09T00:53:43;100365.81;;;28.66;80.58
74524;BME280;63074;44.696;10.358;2023-07-09T00:56:38;100394.84;;;28.60;81.12
74524;BME280;63074;44.696;10.358;2023-07-09T00:59:07;100392.94;;;28.48;81.60
74524;BME280;63074;44.696;10.358;2023-07-09T01:01:36;100399.09;;;28.70;80.32
74524;BME280;63074;44.696;10.358;2023-07-09T01:04:03;100391.03;;;28.89;78.92
74524;BME280;63074;44.696;10.358;2023-07-09T01:06:37;100428.22;;;27.94;84.04
74524;BME280;63074;44.696;10.358;2023-07-09T01:09:05;100373.13;;;28.34;81.88
74524;BME280;63074;44.696;10.358;2023-07-09T01:11:32;100375.41;;;28.81;79.29
74524;BME280;63074;44.696;10.358;2023-07-09T01:14:02;100396.81;;;28.60;79.10
74524;BME280;63074;44.696;10.358;2023-07-09T01:16:36;100397.56;;;28.97;77.82
74524;BME280;63074;44.696;10.358;2023-07-09T01:19:04;100410.03;;;28.78;78.24
74524;BME280;63074;44.696;10.358;2023-07-09T01:21:30;100422.75;;;28.55;79.14
74524;BME280;63074;44.696;10.358;2023-07-09T01:23:57;100412.50;;;28.43;80.12
74524;BME280;63074;44.696;10.358;2023-07-09T01:26:26;100400.47;;;28.88;78.27
74524;BME280;63074;44.696;10.358;2023-07-09T01:28:53;100402.31;;;28.96;77.63
74524;BME280;63074;44.696;10.358;2023-07-09T01:31:19;100402.59;;;28.54;79.73
74524;BME280;63074;44.696;10.358;2023-07-09T01:33:46;100402.16;;;28.52;79.93
74524;BME280;63074;44.696;10.358;2023-07-09T01:36:16;100418.78;;;28.07;81.08
74524;BME280;63074;44.696;10.358;2023-07-09T01:38:43;100397.19;;;28.46;79.80
74524;BME280;63074;44.696;10.358;2023-07-09T01:41:10;100403.53;;;28.34;80.09
74524;BME280;63074;44.696;10.358;2023-07-09T01:43:41;100396.38;;;28.33;80.46
74524;BME280;63074;44.696;10.358;2023-07-09T01:46:08;100392.59;;;28.26;80.71
74524;BME280;63074;44.696;10.358;2023-07-09T01:48:35;100388.97;;;28.74;79.05
74524;BME280;63074;44.696;10.358;2023-07-09T01:51:12;100389.94;;;28.53;79.91
74524;BME280;63074;44.696;10.358;2023-07-09T01:53:40;100391.00;;;29.01;77.48
74524;BME280;63074;44.696;10.358;2023-07-09T01:56:07;100398.69;;;29.08;76.41
74524;BME280;63074;44.696;10.358;2023-07-09T01:58:34;100395.59;;;29.37;75.59
74524;BME280;63074;44.696;10.358;2023-07-09T02:01:00;100403.22;;;29.28;75.37
74524;BME280;63074;44.696;10.358;2023-07-09T02:03:27;100418.94;;;28.84;77.71
74524;BME280;63074;44.696;10.358;2023-07-09T02:05:54;100427.13;;;28.44;78.77
74524;BME280;63074;44.696;10.358;2023-07-09T02:08:20;100408.59;;;28.56;79.01
74524;BME280;63074;44.696;10.358;2023-07-09T02:13:16;100418.75;;;27.83;82.94
74524;BME280;63074;44.696;10.358;2023-07-09T02:15:45;100384.91;;;27.74;83.09
74524;BME280;63074;44.696;10.358;2023-07-09T02:18:12;100373.13;;;28.34;81.37
74524;BME280;63074;44.696;10.358;2023-07-09T02:20:39;100386.81;;;28.18;82.04
74524;BME280;63074;44.696;10.358;2023-07-09T02:23:07;100380.94;;;28.08;82.64
74524;BME280;63074;44.696;10.358;2023-07-09T02:25:34;100377.03;;;28.33;82.09
74524;BME280;63074;44.696;10.358;2023-07-09T02:28:01;100368.56;;;28.78;79.46
74524;BME280;63074;44.696;10.358;2023-07-09T02:30:27;100382.69;;;28.49;80.60
74524;BME280;63074;44.696;10.358;2023-07-09T02:32:53;100396.38;;;28.45;81.09
74524;BME280;63074;44.696;10.358;2023-07-09T02:35:20;100391.50;;;28.06;81.95
74524;BME280;63074;44.696;10.358;2023-07-09T02:37:47;100412.47;;;27.29;85.38
74524;BME280;63074;44.696;10.358;2023-07-09T02:40:14;100398.16;;;27.47;84.69
74524;BME280;63074;44.696;10.358;2023-07-09T02:42:40;100389.00;;;28.13;82.44
74524;BME280;63074;44.696;10.358;2023-07-09T02:45:08;100396.66;;;27.17;86.56
74524;BME280;63074;44.696;10.358;2023-07-09T02:47:34;100359.38;;;27.77;84.75
74524;BME280;63074;44.696;10.358;2023-07-09T02:50:00;100369.44;;;27.94;84.23
74524;BME280;63074;44.696;10.358;2023-07-09T02:52:27;100383.47;;;28.13;82.79
74524;BME280;63074;44.696;10.358;2023-07-09T02:54:53;100391.09;;;28.52;80.78
74524;BME280;63074;44.696;10.358;2023-07-09T02:57:19;100392.19;;;28.64;80.20
74524;BME280;63074;44.696;10.358;2023-07-09T02:59:45;100409.13;;;28.62;79.61
74524;BME280;63074;44.696;10.358;2023-07-09T03:02:11;100412.72;;;28.63;79.85
74524;BME280;63074;44.696;10.358;2023-07-09T03:04:38;100406.38;;;28.62;79.18
74524;BME280;63074;44.696;10.358;2023-07-09T03:07:04;100418.03;;;28.43;80.36
74524;BME280;63074;44.696;10.358;2023-07-09T03:09:30;100412.00;;;28.66;79.35
74524;BME280;63074;44.696;10.358;2023-07-09T03:11:56;100415.94;;;28.65;79.23
74524;BME280;63074;44.696;10.358;2023-07-09T03:14:23;100429.00;;;28.28;80.25
74524;BME280;63074;44.696;10.358;2023-07-09T03:19:15;100409.56;;;28.88;77.52
74524;BME280;63074;44.696;10.358;2023-07-09T03:21:41;100426.97;;;28.89;76.82
74524;BME280;63074;44.696;10.358;2023-07-09T03:24:07;100429.03;;;28.92;76.47
74524;BME280;63074;44.696;10.358;2023-07-09T03:26:34;100431.94;;;28.96;76.62
74524;BME280;63074;44.696;10.358;2023-07-09T03:29:01;100442.78;;;28.88;77.36
74524;BME280;63074;44.696;10.358;2023-07-09T03:31:27;100433.19;;;28.98;77.68
74524;BME280;63074;44.696;10.358;2023-07-09T03:33:54;100439.19;;;29.00;76.88
74524;BME280;63074;44.696;10.358;2023-07-09T03:36:20;100475.16;;;28.27;79.80
74524;BME280;63074;44.696;10.358;2023-07-09T03:38:47;100452.31;;;28.18;80.61
74524;BME280;63074;44.696;10.358;2023-07-09T03:41:14;100429.56;;;28.58;78.85
74524;BME280;63074;44.696;10.358;2023-07-09T03:43:40;100422.25;;;28.89;77.53
74524;BME280;63074;44.696;10.358;2023-07-09T03:46:06;100431.44;;;29.06;76.63
74524;BME280;63074;44.696;10.358;2023-07-09T03:48:32;100443.00;;;28.96;75.79
74524;BME280;63074;44.696;10.358;2023-07-09T03:50:59;100460.63;;;28.67;77.39
74524;BME280;63074;44.696;10.358;2023-07-09T03:53:25;100467.66;;;28.76;77.43
74524;BME280;63074;44.696;10.358;2023-07-09T03:58:17;100473.63;;;29.03;76.95
74524;BME280;63074;44.696;10.358;2023-07-09T04:00:43;100494.97;;;28.66;78.92
74524;BME280;63074;44.696;10.358;2023-07-09T04:03:11;100466.59;;;29.05;77.27
74524;BME280;63074;44.696;10.358;2023-07-09T04:05:37;100471.91;;;29.10;76.12
74524;BME280;63074;44.696;10.358;2023-07-09T04:08:04;100481.47;;;29.13;76.29
74524;BME280;63074;44.696;10.358;2023-07-09T04:10:31;100473.50;;;29.11;76.23
74524;BME280;63074;44.696;10.358;2023-07-09T04:12:58;100487.47;;;28.66;77.96
74524;BME280;63074;44.696;10.358;2023-07-09T04:15:24;100473.06;;;28.73;77.69
74524;BME280;63074;44.696;10.358;2023-07-09T04:20:16;100458.69;;;28.79;77.53
74524;BME280;63074;44.696;10.358;2023-07-09T04:22:43;100470.22;;;28.57;77.70
74524;BME280;63074;44.696;10.358;2023-07-09T04:25:10;100462.47;;;28.75;78.83
74524;BME280;63074;44.696;10.358;2023-07-09T04:27:38;100485.41;;;27.94;81.11
74524;BME280;63074;44.696;10.358;2023-07-09T04:30:07;100450.25;;;28.64;80.52
74524;BME280;63074;44.696;10.358;2023-07-09T04:32:35;100484.56;;;27.81;82.80
74524;BME280;63074;44.696;10.358;2023-07-09T04:35:02;100438.97;;;28.32;81.75
74524;BME280;63074;44.696;10.358;2023-07-09T04:37:31;100439.19;;;28.76;79.86
74524;BME280;63074;44.696;10.358;2023-07-09T04:39:58;100446.09;;;28.94;78.49
74524;BME280;63074;44.696;10.358;2023-07-09T04:42:24;100448.44;;;29.20;77.96
74524;BME280;63074;44.696;10.358;2023-07-09T04:47:16;100460.31;;;29.20;78.06
74524;BME280;63074;44.696;10.358;2023-07-09T04:49:42;100461.09;;;29.33;77.02
74524;BME280;63074;44.696;10.358;2023-07-09T04:52:09;100463.94;;;29.49;76.51
74524;BME280;63074;44.696;10.358;2023-07-09T04:54:41;100469.53;;;29.24;77.93
74524;BME280;63074;44.696;10.358;2023-07-09T04:57:11;100465.84;;;29.20;78.17
74524;BME280;63074;44.696;10.358;2023-07-09T04:59:37;100460.50;;;29.40;77.45
74524;BME280;63074;44.696;10.358;2023-07-09T05:02:04;100475.25;;;28.79;78.79
74524;BME280;63074;44.696;10.358;2023-07-09T05:04:31;100466.28;;;28.95;79.31
74524;BME280;63074;44.696;10.358;2023-07-09T05:06:57;100452.38;;;29.19;78.00
74524;BME280;63074;44.696;10.358;2023-07-09T05:09:24;100455.81;;;29.40;77.33
74524;BME280;63074;44.696;10.358;2023-07-09T05:14:17;100487.59;;;29.06;79.34
74524;BME280;63074;44.696;10.358;2023-07-09T05:16:44;100469.88;;;29.23;79.60
74524;BME280;63074;44.696;10.358;2023-07-09T05:19:11;100479.88;;;29.40;79.79
74524;BME280;63074;44.696;10.358;2023-07-09T05:21:37;100471.00;;;29.06;81.43
74524;BME280;63074;44.696;10.358;2023-07-09T05:24:05;100458.31;;;29.73;79.02
74524;BME280;63074;44.696;10.358;2023-07-09T05:26:34;100467.78;;;29.72;78.62
74524;BME280;63074;44.696;10.358;2023-07-09T05:29:03;100474.94;;;29.89;78.53
74524;BME280;63074;44.696;10.358;2023-07-09T05:31:30;100476.72;;;29.81;78.89
74524;BME280;63074;44.696;10.358;2023-07-09T05:33:56;100485.47;;;29.83;78.50
74524;BME280;63074;44.696;10.358;2023-07-09T05:36:22;100485.81;;;30.10;77.46
74524;BME280;63074;44.696;10.358;2023-07-09T05:38:49;100497.22;;;29.93;78.76
74524;BME280;63074;44.696;10.358;2023-07-09T05:41:15;100492.75;;;29.60;78.79
74524;BME280;63074;44.696;10.358;2023-07-09T05:43:45;100489.97;;;29.88;77.97
74524;BME280;63074;44.696;10.358;2023-07-09T05:46:13;100497.72;;;29.82;77.82
74524;BME280;63074;44.696;10.358;2023-07-09T05:48:40;100506.50;;;29.56;77.97
74524;BME280;63074;44.696;10.358;2023-07-09T05:51:06;100492.78;;;29.76;77.67
74524;BME280;63074;44.696;10.358;2023-07-09T05:53:32;100498.13;;;29.97;77.76
74524;BME280;63074;44.696;10.358;2023-07-09T05:55:59;100486.34;;;30.15;77.07
74524;BME280;63074;44.696;10.358;2023-07-09T05:58:25;100503.25;;;30.10;77.09
74524;BME280;63074;44.696;10.358;2023-07-09T06:03:17;100511.13;;;30.40;76.82
74524;BME280;63074;44.696;10.358;2023-07-09T06:05:44;100503.91;;;30.51;76.49
74524;BME280;63074;44.696;10.358;2023-07-09T06:08:10;100509.91;;;29.94;76.46
74524;BME280;63074;44.696;10.358;2023-07-09T06:10:38;100503.78;;;30.16;76.59
74524;BME280;63074;44.696;10.358;2023-07-09T06:13:09;100515.03;;;30.07;77.58
74524;BME280;63074;44.696;10.358;2023-07-09T06:15:35;100506.50;;;30.44;76.33
74524;BME280;63074;44.696;10.358;2023-07-09T06:18:02;100509.16;;;30.87;75.10
74524;BME280;63074;44.696;10.358;2023-07-09T06:20:28;100503.75;;;31.10;73.85
74524;BME280;63074;44.696;10.358;2023-07-09T06:22:54;100524.25;;;30.90;74.34
74524;BME280;63074;44.696;10.358;2023-07-09T06:25:20;100527.78;;;30.87;74.13
74524;BME280;63074;44.696;10.358;2023-07-09T06:27:46;100522.47;;;30.98;74.10
74524;BME280;63074;44.696;10.358;2023-07-09T06:30:13;100508.59;;;31.13;75.24
74524;BME280;63074;44.696;10.358;2023-07-09T06:32:40;100511.44;;;31.01;72.36
74524;BME280;63074;44.696;10.358;2023-07-09T06:35:06;100487.13;;;31.30;69.10
74524;BME280;63074;44.696;10.358;2023-07-09T06:37:33;100596.06;;;29.76;80.58
74524;BME280;63074;44.696;10.358;2023-07-09T06:39:59;100555.44;;;29.28;81.62
74524;BME280;63074;44.696;10.358;2023-07-09T06:42:25;100532.16;;;29.41;80.58
74524;BME280;63074;44.696;10.358;2023-07-09T06:47:17;100494.00;;;29.22;83.20
74524;BME280;63074;44.696;10.358;2023-07-09T06:49:43;100472.09;;;29.85;80.43
74524;BME280;63074;44.696;10.358;2023-07-09T06:52:09;100448.25;;;30.75;76.41
74524;BME280;63074;44.696;10.358;2023-07-09T06:54:36;100504.41;;;29.81;82.76
74524;BME280;63074;44.696;10.358;2023-07-09T06:57:02;100487.91;;;29.57;83.52
74524;BME280;63074;44.696;10.358;2023-07-09T06:59:28;100478.22;;;29.79;84.93
74524;BME280;63074;44.696;10.358;2023-07-09T07:01:56;100468.84;;;30.27;82.36
74524;BME280;63074;44.696;10.358;2023-07-09T07:04:25;100466.69;;;30.05;84.24
74524;BME280;63074;44.696;10.358;2023-07-09T07:09:17;100431.16;;;30.73;76.94
74524;BME280;63074;44.696;10.358;2023-07-09T07:11:43;100505.25;;;30.26;79.57
74524;BME280;63074;44.696;10.358;2023-07-09T07:14:09;100479.91;;;29.68;82.18
74524;BME280;63074;44.696;10.358;2023-07-09T07:16:36;100482.72;;;29.55;84.24
74524;BME280;63074;44.696;10.358;2023-07-09T07:19:02;100466.25;;;29.75;82.74
74524;BME280;63074;44.696;10.358;2023-07-09T07:21:28;100481.06;;;30.10;78.37
74524;BME280;63074;44.696;10.358;2023-07-09T07:23:54;100479.75;;;30.20;82.10
74524;BME280;63074;44.696;10.358;2023-07-09T07:26:20;100478.25;;;30.22;80.64
74524;BME280;63074;44.696;10.358;2023-07-09T07:28:46;100490.38;;;30.02;80.05
74524;BME280;63074;44.696;10.358;2023-07-09T07:31:13;100497.97;;;29.77;83.13
74524;BME280;63074;44.696;10.358;2023-07-09T07:33:40;100488.44;;;30.18;79.72
74524;BME280;63074;44.696;10.358;2023-07-09T07:36:07;100512.38;;;30.11;84.19
74524;BME280;63074;44.696;10.358;2023-07-09T07:38:34;100466.72;;;31.22;73.93
74524;BME280;63074;44.696;10.358;2023-07-09T07:41:01;100523.28;;;30.35;80.22
74524;BME280;63074;44.696;10.358;2023-07-09T07:43:27;100524.38;;;30.46;77.53
74524;BME280;63074;44.696;10.358;2023-07-09T07:45:54;100517.59;;;30.28;77.24
74524;BME280;63074;44.696;10.358;2023-07-09T07:48:20;100527.56;;;30.33;78.54
74524;BME280;63074;44.696;10.358;2023-07-09T07:50:46;100525.47;;;30.73;79.78
74524;BME280;63074;44.696;10.358;2023-07-09T07:53:14;100494.19;;;30.92;75.26
74524;BME280;63074;44.696;10.358;2023-07-09T07:55:41;100496.09;;;31.23;75.41
74524;BME280;63074;44.696;10.358;2023-07-09T07:58:12;100483.16;;;31.88;69.88
74524;BME280;63074;44.696;10.358;2023-07-09T08:00:39;100550.00;;;30.87;77.78
74524;BME280;63074;44.696;10.358;2023-07-09T08:03:06;100541.31;;;30.73;81.25
74524;BME280;63074;44.696;10.358;2023-07-09T08:05:32;100487.34;;;31.60;73.64
74524;BME280;63074;44.696;10.358;2023-07-09T08:07:58;100512.69;;;31.04;74.30
74524;BME280;63074;44.696;10.358;2023-07-09T08:10:25;100496.34;;;31.92;70.52
74524;BME280;63074;44.696;10.358;2023-07-09T08:15:17;100522.56;;;31.01;73.97
74524;BME280;63074;44.696;10.358;2023-07-09T08:17:43;100514.91;;;30.79;73.33
74524;BME280;63074;44.696;10.358;2023-07-09T08:20:10;100513.38;;;30.81;72.76
74524;BME280;63074;44.696;10.358;2023-07-09T08:22:36;100516.50;;;31.31;72.59
74524;BME280;63074;44.696;10.358;2023-07-09T08:25:02;100480.34;;;32.08;67.71
74524;BME280;63074;44.696;10.358;2023-07-09T08:27:28;100523.53;;;31.44;70.01
74524;BME280;63074;44.696;10.358;2023-07-09T08:29:54;100530.75;;;31.29;70.08
74524;BME280;63074;44.696;10.358;2023-07-09T08:32:21;100513.59;;;31.43;68.46
74524;BME280;63074;44.696;10.358;2023-07-09T08:34:47;100488.44;;;32.16;64.22
74524;BME280;63074;44.696;10.358;2023-07-09T08:37:13;100476.47;;;32.58;62.58
74524;BME280;63074;44.696;10.358;2023-07-09T08:39:39;100499.59;;;32.39;64.12
74524;BME280;63074;44.696;10.358;2023-07-09T08:42:12;100507.47;;;32.83;63.77
74524;BME280;63074;44.696;10.358;2023-07-09T08:50:21;100516.34;;;32.92;62.44
74524;BME280;63074;44.696;10.358;2023-07-09T08:52:50;100553.34;;;32.24;65.44
74524;BME280;63074;44.696;10.358;2023-07-09T08:55:18;100567.00;;;32.13;65.96
74524;BME280;63074;44.696;10.358;2023-07-09T09:05:26;100533.63;;;33.31;62.75
74524;BME280;63074;44.696;10.358;2023-07-09T09:07:57;100517.00;;;33.68;60.57
74524;BME280;63074;44.696;10.358;2023-07-09T09:13:19;100597.16;;;32.11;67.24
74524;BME280;63074;44.696;10.358;2023-07-09T09:15:48;100541.34;;;32.66;62.44
74524;BME280;63074;44.696;10.358;2023-07-09T09:18:25;100554.81;;;32.64;63.08
74524;BME280;63074;44.696;10.358;2023-07-09T09:21:21;100565.34;;;32.51;63.25
74524;BME280;63074;44.696;10.358;2023-07-09T09:26:36;100528.53;;;33.37;59.75
74524;BME280;63074;44.696;10.358;2023-07-09T09:29:12;100565.78;;;32.53;62.86
74524;BME280;63074;44.696;10.358;2023-07-09T09:31:39;100527.88;;;33.47;59.32
74524;BME280;63074;44.696;10.358;2023-07-09T09:34:18;100534.66;;;33.79;59.69
74524;BME280;63074;44.696;10.358;2023-07-09T09:36:45;100542.03;;;33.65;59.35
74524;BME280;63074;44.696;10.358;2023-07-09T09:39:11;100514.38;;;34.19;56.71
74524;BME280;63074;44.696;10.358;2023-07-09T09:41:37;100506.50;;;34.29;56.65
74524;BME280;63074;44.696;10.358;2023-07-09T09:44:04;100501.56;;;34.56;55.11
74524;BME280;63074;44.696;10.358;2023-07-09T09:46:32;100476.19;;;35.40;53.05
74524;BME280;63074;44.696;10.358;2023-07-09T09:49:02;100469.16;;;35.96;51.84
74524;BME280;63074;44.696;10.358;2023-07-09T09:51:29;100480.22;;;35.50;52.22
74524;BME280;63074;44.696;10.358;2023-07-09T09:54:00;100482.75;;;35.91;51.26
74524;BME280;63074;44.696;10.358;2023-07-09T09:56:36;100532.97;;;34.93;54.31
74524;BME280;63074;44.696;10.358;2023-07-09T09:59:03;100563.69;;;34.12;58.27
74524;BME280;63074;44.696;10.358;2023-07-09T10:01:33;100534.31;;;34.66;54.32
74524;BME280;63074;44.696;10.358;2023-07-09T10:04:05;100527.25;;;35.37;54.47
74524;BME280;63074;44.696;10.358;2023-07-09T10:06:41;100523.41;;;35.74;54.11
74524;BME280;63074;44.696;10.358;2023-07-09T10:09:29;100514.63;;;35.75;52.64
74524;BME280;63074;44.696;10.358;2023-07-09T10:14:44;100589.53;;;34.09;59.09
74524;BME280;63074;44.696;10.358;2023-07-09T10:17:16;100526.56;;;34.89;53.59
74524;BME280;63074;44.696;10.358;2023-07-09T10:25:29;100564.69;;;34.74;55.55
74524;BME280;63074;44.696;10.358;2023-07-09T10:41:18;100537.41;;;35.74;52.13
74524;BME280;63074;44.696;10.358;2023-07-09T10:43:49;100571.13;;;34.78;53.53
74524;BME280;63074;44.696;10.358;2023-07-09T10:46:28;100546.28;;;35.17;52.24
74524;BME280;63074;44.696;10.358;2023-07-09T10:48:57;100511.97;;;36.43;49.50
74524;BME280;63074;44.696;10.358;2023-07-09T10:51:50;100509.59;;;36.45;50.09
74524;BME280;63074;44.696;10.358;2023-07-09T11:00:14;100525.97;;;36.43;50.33
74524;BME280;63074;44.696;10.358;2023-07-09T11:02:43;100534.78;;;36.45;50.47
74524;BME280;63074;44.696;10.358;2023-07-09T11:05:10;100523.06;;;35.82;49.59
74524;BME280;63074;44.696;10.358;2023-07-09T11:10:25;100546.31;;;36.22;50.90
74524;BME280;63074;44.696;10.358;2023-07-09T11:15:30;100495.41;;;37.44;47.81
74524;BME280;63074;44.696;10.358;2023-07-09T11:17:58;100502.16;;;37.54;48.50
74524;BME280;63074;44.696;10.358;2023-07-09T11:20:31;100499.03;;;38.18;48.64
74524;BME280;63074;44.696;10.358;2023-07-09T11:23:17;100478.50;;;38.28;46.69
74524;BME280;63074;44.696;10.358;2023-07-09T11:25:49;100451.00;;;38.57;44.17
74524;BME280;63074;44.696;10.358;2023-07-09T11:28:16;100452.63;;;38.51;43.72
74524;BME280;63074;44.696;10.358;2023-07-09T11:33:28;100551.97;;;36.97;50.74
74524;BME280;63074;44.696;10.358;2023-07-09T11:36:10;100524.56;;;37.72;48.33
74524;BME280;63074;44.696;10.358;2023-07-09T11:38:47;100515.09;;;37.30;47.57
74524;BME280;63074;44.696;10.358;2023-07-09T11:46:50;100482.66;;;38.09;46.01
74524;BME280;63074;44.696;10.358;2023-07-09T11:49:17;100507.41;;;38.22;47.69
74524;BME280;63074;44.696;10.358;2023-07-09T11:51:47;100497.22;;;38.90;46.77
74524;BME280;63074;44.696;10.358;2023-07-09T11:54:17;100506.78;;;38.51;47.39
74524;BME280;63074;44.696;10.358;2023-07-09T11:59:17;100496.63;;;38.16;46.17
74524;BME280;63074;44.696;10.358;2023-07-09T12:01:45;100487.97;;;37.93;45.62
74524;BME280;63074;44.696;10.358;2023-07-09T12:04:19;100499.78;;;38.26;46.18
74524;BME280;63074;44.696;10.358;2023-07-09T12:06:47;100470.41;;;39.20;44.90
74524;BME280;63074;44.696;10.358;2023-07-09T12:09:20;100446.16;;;39.29;42.39
74524;BME280;63074;44.696;10.358;2023-07-09T12:14:20;100438.50;;;39.64;42.30
74524;BME280;63074;44.696;10.358;2023-07-09T12:19:19;100436.28;;;40.29;42.03
74524;BME280;63074;44.696;10.358;2023-07-09T12:24:31;100421.69;;;40.57;40.48
74524;BME280;63074;44.696;10.358;2023-07-09T12:27:15;100437.94;;;40.49;41.79
74524;BME280;63074;44.696;10.358;2023-07-09T12:29:42;100477.41;;;39.35;45.10
74524;BME280;63074;44.696;10.358;2023-07-09T12:32:14;100486.63;;;38.67;45.03
74524;BME280;63074;44.696;10.358;2023-07-09T12:34:40;100472.13;;;39.10;44.13
74524;BME280;63074;44.696;10.358;2023-07-09T12:37:14;100470.97;;;39.04;43.45
74524;BME280;63074;44.696;10.358;2023-07-09T12:39:40;100458.66;;;39.86;43.37
74524;BME280;63074;44.696;10.358;2023-07-09T12:42:24;100450.53;;;39.64;42.69
74524;BME280;63074;44.696;10.358;2023-07-09T12:44:54;100462.44;;;39.14;42.80
74524;BME280;63074;44.696;10.358;2023-07-09T12:47:24;100500.72;;;37.21;47.08
74524;BME280;63074;44.696;10.358;2023-07-09T12:52:18;100451.16;;;39.18;41.95
74524;BME280;63074;44.696;10.358;2023-07-09T12:57:17;100433.34;;;39.86;41.80
74524;BME280;63074;44.696;10.358;2023-07-09T12:59:46;100484.41;;;37.85;44.70
74524;BME280;63074;44.696;10.358;2023-07-09T13:04:45;100435.03;;;39.22;41.89
74524;BME280;63074;44.696;10.358;2023-07-09T13:07:25;100408.09;;;40.75;39.97
74524;BME280;63074;44.696;10.358;2023-07-09T13:09:56;100431.91;;;39.74;41.29
74524;BME280;63074;44.696;10.358;2023-07-09T13:12:33;100416.06;;;40.57;40.74
74524;BME280;63074;44.696;10.358;2023-07-09T13:14:59;100447.44;;;38.49;43.64
74524;BME280;63074;44.696;10.358;2023-07-09T13:17:29;100454.25;;;38.48;43.50
74524;BME280;63074;44.696;10.358;2023-07-09T13:19:56;100441.41;;;39.57;42.29
74524;BME280;63074;44.696;10.358;2023-07-09T13:22:23;100432.28;;;39.19;42.01
74524;BME280;63074;44.696;10.358;2023-07-09T13:27:17;100431.69;;;39.31;41.52
74524;BME280;63074;44.696;10.358;2023-07-09T13:29:43;100398.69;;;40.62;40.17
74524;BME280;63074;44.696;10.358;2023-07-09T13:32:16;100403.91;;;40.84;39.75
74524;BME280;63074;44.696;10.358;2023-07-09T13:34:43;100437.22;;;39.38;42.58
74524;BME280;63074;44.696;10.358;2023-07-09T13:37:16;100397.44;;;41.03;39.35
74524;BME280;63074;44.696;10.358;2023-07-09T13:39:43;100384.25;;;41.20;37.89
74524;BME280;63074;44.696;10.358;2023-07-09T13:42:17;100412.38;;;39.63;41.08
74524;BME280;63074;44.696;10.358;2023-07-09T13:44:45;100423.16;;;39.07;42.10
74524;BME280;63074;44.696;10.358;2023-07-09T13:47:19;100423.84;;;40.03;41.13
74524;BME280;63074;44.696;10.358;2023-07-09T13:49:46;100406.66;;;40.87;39.59
74524;BME280;63074;44.696;10.358;2023-07-09T13:52:21;100382.41;;;41.65;37.89
74524;BME280;63074;44.696;10.358;2023-07-09T13:54:50;100378.50;;;41.59;38.04
74524;BME280;63074;44.696;10.358;2023-07-09T13:57:18;100368.63;;;42.16;37.87
74524;BME280;63074;44.696;10.358;2023-07-09T13:59:46;100356.56;;;41.99;37.28
74524;BME280;63074;44.696;10.358;2023-07-09T14:02:23;100361.53;;;42.40;37.17
74524;BME280;63074;44.696;10.358;2023-07-09T14:04:51;100370.50;;;41.58;37.20
74524;BME280;63074;44.696;10.358;2023-07-09T14:07:29;100363.09;;;41.80;36.56
74524;BME280;63074;44.696;10.358;2023-07-09T14:09:57;100374.66;;;42.02;37.12
74524;BME280;63074;44.696;10.358;2023-07-09T14:12:24;100350.63;;;42.42;35.96
74524;BME280;63074;44.696;10.358;2023-07-09T14:17:18;100353.81;;;42.57;35.41
74524;BME280;63074;44.696;10.358;2023-07-09T14:19:45;100360.41;;;42.67;35.96
74524;BME280;63074;44.696;10.358;2023-07-09T14:22:25;100357.69;;;42.92;35.85
74524;BME280;63074;44.696;10.358;2023-07-09T14:24:53;100360.31;;;42.70;35.55
74524;BME280;63074;44.696;10.358;2023-07-09T14:27:19;100360.13;;;42.32;35.69
74524;BME280;63074;44.696;10.358;2023-07-09T14:29:46;100362.41;;;42.54;35.81
74524;BME280;63074;44.696;10.358;2023-07-09T14:32:38;100372.78;;;42.44;36.68
74524;BME280;63074;44.696;10.358;2023-07-09T14:35:16;100360.78;;;43.23;35.48
74524;BME280;63074;44.696;10.358;2023-07-09T14:37:46;100364.47;;;43.07;36.00